sensor_id;sensor_type;location;lat;lon;timestamp;temperature;humidity
47482;DHT22;33219;47.410;9.730;2022-11-15T00:00:52;8.10;99.90
47482;DHT22;33219;47.410;9.730;2022-11-15T00:03:22;8.00;99.90
47482;DHT22;33219;47.410;9.730;2022-11-15T00:05:51;8.00;99.90
47482;DHT22;33219;47.410;9.730;2022-11-15T00:08:18;8.00;99.90
47482;DHT22;33219;47.410;9.730;2022-11-15T00:10:56;8.00;99.90
47482;DHT22;33219;47.410;9.730;2022-11-15T00:13:25;8.00;99.90
47482;DHT22;33219;47.410;9.730;2022-11-15T00:15:54;8.00;99.90
47482;DHT22;33219;47.410;9.730;2022-11-15T00:18:22;8.00;99.90
47482;DHT22;33219;47.410;9.730;2022-11-15T00:20:49;7.80;99.90
47482;DHT22;33219;47.410;9.730;2022-11-15T00:23:17;7.70;99.90
47482;DHT22;33219;47.410;9.730;2022-11-15T00:25:45;7.60;99.90
47482;DHT22;33219;47.410;9.730;2022-11-15T00:28:12;7.50;99.90
47482;DHT22;33219;47.410;9.730;2022-11-15T00:30:40;7.40;99.90
47482;DHT22;33219;47.410;9.730;2022-11-15T00:33:09;7.30;99.90
47482;DHT22;33219;47.410;9.730;2022-11-15T00:35:37;7.20;99.90
47482;DHT22;33219;47.410;9.730;2022-11-15T00:38:04;7.20;99.90
47482;DHT22;33219;47.410;9.730;2022-11-15T00:40:32;7.30;99.90
47482;DHT22;33219;47.410;9.730;2022-11-15T00:43:00;7.40;99.90
47482;DHT22;33219;47.410;9.730;2022-11-15T00:45:28;7.30;99.90
47482;DHT22;33219;47.410;9.730;2022-11-15T00:47:55;7.30;99.90
47482;DHT22;33219;47.410;9.730;2022-11-15T00:50:23;7.40;99.90
47482;DHT22;33219;47.410;9.730;2022-11-15T00:52:51;7.40;99.90
47482;DHT22;33219;47.410;9.730;2022-11-15T00:55:19;7.30;99.90
47482;DHT22;33219;47.410;9.730;2022-11-15T00:57:46;7.20;99.90
47482;DHT22;33219;47.410;9.730;2022-11-15T01:00:14;7.30;99.90
47482;DHT22;33219;47.410;9.730;2022-11-15T01:02:42;7.30;99.90
47482;DHT22;33219;47.410;9.730;2022-11-15T01:05:10;7.20;99.90
47482;DHT22;33219;47.410;9.730;2022-11-15T01:07:37;7.10;99.90
47482;DHT22;33219;47.410;9.730;2022-11-15T01:10:05;7.10;99.90
47482;DHT22;33219;47.410;9.730;2022-11-15T01:12:33;7.10;99.90
47482;DHT22;33219;47.410;9.730;2022-11-15T01:15:01;7.10;99.90
47482;DHT22;33219;47.410;9.730;2022-11-15T01:17:29;7.00;99.90
47482;DHT22;33219;47.410;9.730;2022-11-15T01:19:57;7.00;99.90
47482;DHT22;33219;47.410;9.730;2022-11-15T01:22:25;7.00;99.90
47482;DHT22;33219;47.410;9.730;2022-11-15T01:24:52;7.00;99.90
47482;DHT22;33219;47.410;9.730;2022-11-15T01:27:20;7.10;99.90
47482;DHT22;33219;47.410;9.730;2022-11-15T01:29:47;7.10;99.90
47482;DHT22;33219;47.410;9.730;2022-11-15T01:32:15;7.20;99.90
47482;DHT22;33219;47.410;9.730;2022-11-15T01:34:43;7.10;99.90
47482;DHT22;33219;47.410;9.730;2022-11-15T01:37:10;7.00;99.90
47482;DHT22;33219;47.410;9.730;2022-11-15T01:39:38;6.90;99.90
47482;DHT22;33219;47.410;9.730;2022-11-15T01:42:08;6.80;99.90
47482;DHT22;33219;47.410;9.730;2022-11-15T01:44:46;6.80;99.90
47482;DHT22;33219;47.410;9.730;2022-11-15T01:47:23;6.70;99.90
47482;DHT22;33219;47.410;9.730;2022-11-15T01:50:12;6.70;99.90
47482;DHT22;33219;47.410;9.730;2022-11-15T01:52:26;6.60;99.90
47482;DHT22;33219;47.410;9.730;2022-11-15T01:55:09;6.40;99.90
47482;DHT22;33219;47.410;9.730;2022-11-15T01:57:37;6.20;99.90
47482;DHT22;33219;47.410;9.730;2022-11-15T02:00:06;6.00;99.90
47482;DHT22;33219;47.410;9.730;2022-11-15T02:02:34;6.10;99.90
47482;DHT22;33219;47.410;9.730;2022-11-15T02:05:03;6.20;99.90
47482;DHT22;33219;47.410;9.730;2022-11-15T02:07:32;6.20;99.90
47482;DHT22;33219;47.410;9.730;2022-11-15T02:10:14;6.10;99.90
47482;DHT22;33219;47.410;9.730;2022-11-15T02:12:37;6.10;99.90
47482;DHT22;33219;47.410;9.730;2022-11-15T02:15:07;6.00;99.90
47482;DHT22;33219;47.410;9.730;2022-11-15T02:23:29;5.60;99.90
47482;DHT22;33219;47.410;9.730;2022-11-15T02:29:10;5.40;99.90
47482;DHT22;33219;47.410;9.730;2022-11-15T02:31:51;5.20;99.90
47482;DHT22;33219;47.410;9.730;2022-11-15T02:34:56;5.20;99.90
47482;DHT22;33219;47.410;9.730;2022-11-15T02:37:34;5.20;99.90
47482;DHT22;33219;47.410;9.730;2022-11-15T02:40:17;5.30;99.90
47482;DHT22;33219;47.410;9.730;2022-11-15T02:42:49;5.30;99.90
47482;DHT22;33219;47.410;9.730;2022-11-15T02:45:40;5.20;99.90
47482;DHT22;33219;47.410;9.730;2022-11-15T02:48:05;5.20;99.90
47482;DHT22;33219;47.410;9.730;2022-11-15T02:50:34;5.10;99.90
47482;DHT22;33219;47.410;9.730;2022-11-15T02:53:02;5.00;99.90
47482;DHT22;33219;47.410;9.730;2022-11-15T02:55:37;5.00;99.90
47482;DHT22;33219;47.410;9.730;2022-11-15T02:58:38;5.10;99.90
47482;DHT22;33219;47.410;9.730;2022-11-15T03:04:13;5.10;99.90
47482;DHT22;33219;47.410;9.730;2022-11-15T03:06:48;5.00;99.90
47482;DHT22;33219;47.410;9.730;2022-11-15T03:09:23;5.00;99.90
47482;DHT22;33219;47.410;9.730;2022-11-15T03:11:50;5.00;99.90
47482;DHT22;33219;47.410;9.730;2022-11-15T03:14:39;4.90;99.90
47482;DHT22;33219;47.410;9.730;2022-11-15T03:17:26;4.80;99.90
47482;DHT22;33219;47.410;9.730;2022-11-15T03:19:57;4.70;99.90
47482;DHT22;33219;47.410;9.730;2022-11-15T03:22:27;4.70;99.90
47482;DHT22;33219;47.410;9.730;2022-11-15T03:25:00;4.60;99.90
47482;DHT22;33219;47.410;9.730;2022-11-15T03:27:35;4.60;99.90
47482;DHT22;33219;47.410;9.730;2022-11-15T03:30:03;4.50;99.90
47482;DHT22;33219;47.410;9.730;2022-11-15T03:32:34;4.40;99.90
47482;DHT22;33219;47.410;9.730;2022-11-15T03:35:12;4.40;99.90
47482;DHT22;33219;47.410;9.730;2022-11-15T03:38:03;4.40;99.90
47482;DHT22;33219;47.410;9.730;2022-11-15T03:40:44;4.40;99.90
47482;DHT22;33219;47.410;9.730;2022-11-15T03:46:12;4.30;99.90
47482;DHT22;33219;47.410;9.730;2022-11-15T03:48:46;4.40;99.90
47482;DHT22;33219;47.410;9.730;2022-11-15T03:51:13;4.40;99.90
47482;DHT22;33219;47.410;9.730;2022-11-15T03:53:42;4.30;99.90
47482;DHT22;33219;47.410;9.730;2022-11-15T03:56:09;4.30;99.90
47482;DHT22;33219;47.410;9.730;2022-11-15T03:58:37;4.20;99.90
47482;DHT22;33219;47.410;9.730;2022-11-15T04:01:04;4.20;99.90
47482;DHT22;33219;47.410;9.730;2022-11-15T04:03:32;4.20;99.90
47482;DHT22;33219;47.410;9.730;2022-11-15T04:06:00;4.10;99.90
47482;DHT22;33219;47.410;9.730;2022-11-15T04:08:27;4.10;99.90
47482;DHT22;33219;47.410;9.730;2022-11-15T04:10:55;4.00;99.90
47482;DHT22;33219;47.410;9.730;2022-11-15T04:13:22;3.90;99.90
47482;DHT22;33219;47.410;9.730;2022-11-15T04:15:51;3.90;99.90
47482;DHT22;33219;47.410;9.730;2022-11-15T04:18:18;3.80;99.90
47482;DHT22;33219;47.410;9.730;2022-11-15T04:20:46;3.80;99.90
47482;DHT22;33219;47.410;9.730;2022-11-15T04:23:31;3.80;99.90
47482;DHT22;33219;47.410;9.730;2022-11-15T04:26:18;3.80;99.90
47482;DHT22;33219;47.410;9.730;2022-11-15T04:28:47;3.80;99.90
47482;DHT22;33219;47.410;9.730;2022-11-15T04:31:32;3.90;99.90
47482;DHT22;33219;47.410;9.730;2022-11-15T04:34:00;3.90;99.90
47482;DHT22;33219;47.410;9.730;2022-11-15T04:36:28;3.90;99.90
47482;DHT22;33219;47.410;9.730;2022-11-15T04:39:13;3.90;99.90
47482;DHT22;33219;47.410;9.730;2022-11-15T04:41:41;3.90;99.90
47482;DHT22;33219;47.410;9.730;2022-11-15T04:44:09;3.90;99.90
47482;DHT22;33219;47.410;9.730;2022-11-15T04:46:36;4.00;99.90
47482;DHT22;33219;47.410;9.730;2022-11-15T04:49:04;4.10;99.90
47482;DHT22;33219;47.410;9.730;2022-11-15T04:51:31;4.20;99.90
47482;DHT22;33219;47.410;9.730;2022-11-15T04:53:59;4.30;99.90
47482;DHT22;33219;47.410;9.730;2022-11-15T04:56:26;4.40;99.90
47482;DHT22;33219;47.410;9.730;2022-11-15T04:58:54;4.70;99.90
47482;DHT22;33219;47.410;9.730;2022-11-15T05:01:22;4.80;99.90
47482;DHT22;33219;47.410;9.730;2022-11-15T05:03:49;4.80;99.90
47482;DHT22;33219;47.410;9.730;2022-11-15T05:06:35;5.00;99.90
47482;DHT22;33219;47.410;9.730;2022-11-15T05:09:03;5.00;99.90
47482;DHT22;33219;47.410;9.730;2022-11-15T05:11:31;4.90;99.90
47482;DHT22;33219;47.410;9.730;2022-11-15T05:13:58;4.80;99.90
47482;DHT22;33219;47.410;9.730;2022-11-15T05:16:26;4.70;99.90
47482;DHT22;33219;47.410;9.730;2022-11-15T05:18:54;4.70;99.90
47482;DHT22;33219;47.410;9.730;2022-11-15T05:21:22;4.60;99.90
47482;DHT22;33219;47.410;9.730;2022-11-15T05:23:50;4.60;99.90
47482;DHT22;33219;47.410;9.730;2022-11-15T05:26:18;4.70;99.90
47482;DHT22;33219;47.410;9.730;2022-11-15T05:28:45;4.70;99.90
47482;DHT22;33219;47.410;9.730;2022-11-15T05:31:15;4.70;99.90
47482;DHT22;33219;47.410;9.730;2022-11-15T05:33:43;4.60;99.90
47482;DHT22;33219;47.410;9.730;2022-11-15T05:36:17;4.40;99.90
47482;DHT22;33219;47.410;9.730;2022-11-15T05:38:46;4.30;99.90
47482;DHT22;33219;47.410;9.730;2022-11-15T05:41:14;4.10;99.90
47482;DHT22;33219;47.410;9.730;2022-11-15T05:43:43;4.00;99.90
47482;DHT22;33219;47.410;9.730;2022-11-15T05:46:13;3.90;99.90
47482;DHT22;33219;47.410;9.730;2022-11-15T05:48:43;3.80;99.90
47482;DHT22;33219;47.410;9.730;2022-11-15T05:51:13;3.70;99.90
47482;DHT22;33219;47.410;9.730;2022-11-15T05:53:42;3.70;99.90
47482;DHT22;33219;47.410;9.730;2022-11-15T05:56:10;3.70;99.90
47482;DHT22;33219;47.410;9.730;2022-11-15T05:58:38;3.70;99.90
47482;DHT22;33219;47.410;9.730;2022-11-15T06:01:06;3.70;99.90
47482;DHT22;33219;47.410;9.730;2022-11-15T06:03:33;3.70;99.90
47482;DHT22;33219;47.410;9.730;2022-11-15T06:06:01;3.80;99.90
47482;DHT22;33219;47.410;9.730;2022-11-15T06:08:29;3.90;99.90
47482;DHT22;33219;47.410;9.730;2022-11-15T06:10:56;3.90;99.90
47482;DHT22;33219;47.410;9.730;2022-11-15T06:13:25;3.90;99.90
47482;DHT22;33219;47.410;9.730;2022-11-15T06:15:55;3.90;99.90
47482;DHT22;33219;47.410;9.730;2022-11-15T06:18:23;3.90;99.90
47482;DHT22;33219;47.410;9.730;2022-11-15T06:20:51;4.00;99.90
47482;DHT22;33219;47.410;9.730;2022-11-15T06:23:18;4.00;99.90
47482;DHT22;33219;47.410;9.730;2022-11-15T06:25:46;4.00;99.90
47482;DHT22;33219;47.410;9.730;2022-11-15T06:28:13;4.00;99.90
47482;DHT22;33219;47.410;9.730;2022-11-15T06:30:41;3.90;99.90
47482;DHT22;33219;47.410;9.730;2022-11-15T06:33:10;3.90;99.90
47482;DHT22;33219;47.410;9.730;2022-11-15T06:35:42;3.90;99.90
47482;DHT22;33219;47.410;9.730;2022-11-15T06:38:23;3.90;99.90
47482;DHT22;33219;47.410;9.730;2022-11-15T06:40:49;4.00;99.90
47482;DHT22;33219;47.410;9.730;2022-11-15T06:53:17;4.20;99.90
47482;DHT22;33219;47.410;9.730;2022-11-15T07:02:32;4.60;99.90
47482;DHT22;33219;47.410;9.730;2022-11-15T07:15:08;4.90;99.90
47482;DHT22;33219;47.410;9.730;2022-11-15T07:18:17;4.80;99.90
47482;DHT22;33219;47.410;9.730;2022-11-15T07:24:35;4.70;99.90
47482;DHT22;33219;47.410;9.730;2022-11-15T07:36:25;6.30;99.90
47482;DHT22;33219;47.410;9.730;2022-11-15T07:39:14;6.90;99.90
47482;DHT22;33219;47.410;9.730;2022-11-15T07:45:10;7.60;99.90
47482;DHT22;33219;47.410;9.730;2022-11-15T07:47:40;8.10;99.90
47482;DHT22;33219;47.410;9.730;2022-11-15T07:50:10;8.40;99.90
47482;DHT22;33219;47.410;9.730;2022-11-15T07:52:42;8.90;99.90
47482;DHT22;33219;47.410;9.730;2022-11-15T07:55:21;9.00;99.90
47482;DHT22;33219;47.410;9.730;2022-11-15T07:57:52;9.10;99.90
47482;DHT22;33219;47.410;9.730;2022-11-15T08:00:25;9.50;99.90
47482;DHT22;33219;47.410;9.730;2022-11-15T08:03:08;9.70;99.90
47482;DHT22;33219;47.410;9.730;2022-11-15T08:05:41;10.10;99.90
47482;DHT22;33219;47.410;9.730;2022-11-15T08:08:07;10.50;99.90
47482;DHT22;33219;47.410;9.730;2022-11-15T08:10:35;10.60;99.90
47482;DHT22;33219;47.410;9.730;2022-11-15T08:13:11;11.00;99.90
47482;DHT22;33219;47.410;9.730;2022-11-15T08:15:59;11.20;99.90
47482;DHT22;33219;47.410;9.730;2022-11-15T08:18:28;11.00;99.90
47482;DHT22;33219;47.410;9.730;2022-11-15T08:20:58;12.20;99.90
47482;DHT22;33219;47.410;9.730;2022-11-15T08:23:27;12.60;99.90
47482;DHT22;33219;47.410;9.730;2022-11-15T08:26:12;12.50;99.70
47482;DHT22;33219;47.410;9.730;2022-11-15T08:28:46;12.10;99.80
47482;DHT22;33219;47.410;9.730;2022-11-15T08:31:19;11.90;99.90
47482;DHT22;33219;47.410;9.730;2022-11-15T08:37:06;10.90;99.90
47482;DHT22;33219;47.410;9.730;2022-11-15T08:39:35;9.90;99.90
47482;DHT22;33219;47.410;9.730;2022-11-15T08:42:09;9.60;99.90
47482;DHT22;33219;47.410;9.730;2022-11-15T08:45:05;9.60;99.90
47482;DHT22;33219;47.410;9.730;2022-11-15T08:47:47;9.30;99.90
47482;DHT22;33219;47.410;9.730;2022-11-15T08:53:13;9.00;99.90
47482;DHT22;33219;47.410;9.730;2022-11-15T08:56:02;9.10;99.90
47482;DHT22;33219;47.410;9.730;2022-11-15T08:58:54;9.40;99.90
47482;DHT22;33219;47.410;9.730;2022-11-15T09:01:31;9.60;99.90
47482;DHT22;33219;47.410;9.730;2022-11-15T09:07:10;9.70;99.90
47482;DHT22;33219;47.410;9.730;2022-11-15T09:13:02;9.70;99.90
47482;DHT22;33219;47.410;9.730;2022-11-15T09:16:09;9.80;99.90
47482;DHT22;33219;47.410;9.730;2022-11-15T09:18:50;9.70;99.90
47482;DHT22;33219;47.410;9.730;2022-11-15T09:21:25;9.80;99.90
47482;DHT22;33219;47.410;9.730;2022-11-15T09:24:09;10.00;99.90
47482;DHT22;33219;47.410;9.730;2022-11-15T09:26:51;10.30;99.90
47482;DHT22;33219;47.410;9.730;2022-11-15T09:29:26;10.30;99.90
47482;DHT22;33219;47.410;9.730;2022-11-15T09:35:18;10.40;99.90
47482;DHT22;33219;47.410;9.730;2022-11-15T09:37:54;10.30;99.90
47482;DHT22;33219;47.410;9.730;2022-11-15T09:40:33;10.40;99.90
47482;DHT22;33219;47.410;9.730;2022-11-15T09:52:33;10.60;99.90
47482;DHT22;33219;47.410;9.730;2022-11-15T09:55:10;10.70;99.90
47482;DHT22;33219;47.410;9.730;2022-11-15T10:01:08;10.60;99.90
47482;DHT22;33219;47.410;9.730;2022-11-15T10:31:51;10.90;99.90
47482;DHT22;33219;47.410;9.730;2022-11-15T10:34:25;10.90;99.90
47482;DHT22;33219;47.410;9.730;2022-11-15T10:36:58;11.00;99.90
47482;DHT22;33219;47.410;9.730;2022-11-15T11:35:19;11.00;99.90
47482;DHT22;33219;47.410;9.730;2022-11-15T11:37:59;11.10;99.90
47482;DHT22;33219;47.410;9.730;2022-11-15T11:52:28;11.20;99.90
47482;DHT22;33219;47.410;9.730;2022-11-15T11:55:21;11.40;99.90
47482;DHT22;33219;47.410;9.730;2022-11-15T11:58:00;11.50;99.90
47482;DHT22;33219;47.410;9.730;2022-11-15T12:00:26;11.50;99.90
47482;DHT22;33219;47.410;9.730;2022-11-15T12:09:17;11.60;99.90
47482;DHT22;33219;47.410;9.730;2022-11-15T12:47:38;11.40;99.90
47482;DHT22;33219;47.410;9.730;2022-11-15T12:50:12;11.30;99.90
47482;DHT22;33219;47.410;9.730;2022-11-15T12:55:32;11.20;99.90
47482;DHT22;33219;47.410;9.730;2022-11-15T12:58:41;11.10;99.90
47482;DHT22;33219;47.410;9.730;2022-11-15T13:01:00;11.10;99.90
47482;DHT22;33219;47.410;9.730;2022-11-15T13:03:36;11.20;99.90
47482;DHT22;33219;47.410;9.730;2022-11-15T13:06:36;11.10;99.90
47482;DHT22;33219;47.410;9.730;2022-11-15T13:08:46;11.10;99.90
47482;DHT22;33219;47.410;9.730;2022-11-15T13:11:42;11.10;99.90
47482;DHT22;33219;47.410;9.730;2022-11-15T13:14:44;11.10;99.90
47482;DHT22;33219;47.410;9.730;2022-11-15T13:19:59;11.10;99.90
47482;DHT22;33219;47.410;9.730;2022-11-15T13:22:29;11.10;99.90
47482;DHT22;33219;47.410;9.730;2022-11-15T13:25:19;11.20;99.90
47482;DHT22;33219;47.410;9.730;2022-11-15T13:27:56;11.20;99.90
47482;DHT22;33219;47.410;9.730;2022-11-15T13:39:48;11.20;99.90
47482;DHT22;33219;47.410;9.730;2022-11-15T13:42:40;11.30;99.90
47482;DHT22;33219;47.410;9.730;2022-11-15T14:16:49;11.40;99.90
47482;DHT22;33219;47.410;9.730;2022-11-15T14:22:22;10.90;99.90
47482;DHT22;33219;47.410;9.730;2022-11-15T14:30:33;10.70;99.90
47482;DHT22;33219;47.410;9.730;2022-11-15T14:33:50;10.60;99.90
47482;DHT22;33219;47.410;9.730;2022-11-15T14:35:37;10.50;99.90
47482;DHT22;33219;47.410;9.730;2022-11-15T14:38:07;10.40;99.90
47482;DHT22;33219;47.410;9.730;2022-11-15T14:40:37;10.30;99.90
47482;DHT22;33219;47.410;9.730;2022-11-15T14:43:08;10.30;99.90
47482;DHT22;33219;47.410;9.730;2022-11-15T14:45:43;10.20;99.90
47482;DHT22;33219;47.410;9.730;2022-11-15T14:48:20;10.20;99.90
47482;DHT22;33219;47.410;9.730;2022-11-15T14:50:54;10.20;99.90
47482;DHT22;33219;47.410;9.730;2022-11-15T14:53:24;10.20;99.90
47482;DHT22;33219;47.410;9.730;2022-11-15T14:56:01;10.20;99.90
47482;DHT22;33219;47.410;9.730;2022-11-15T14:58:31;10.10;99.90
47482;DHT22;33219;47.410;9.730;2022-11-15T15:01:08;10.10;99.90
47482;DHT22;33219;47.410;9.730;2022-11-15T15:03:36;10.10;99.90
47482;DHT22;33219;47.410;9.730;2022-11-15T15:06:13;10.10;99.90
47482;DHT22;33219;47.410;9.730;2022-11-15T15:08:56;10.10;99.90
47482;DHT22;33219;47.410;9.730;2022-11-15T15:11:38;10.10;99.90
47482;DHT22;33219;47.410;9.730;2022-11-15T15:14:19;10.00;99.90
47482;DHT22;33219;47.410;9.730;2022-11-15T15:16:48;10.10;99.90
47482;DHT22;33219;47.410;9.730;2022-11-15T15:19:20;10.00;99.90
47482;DHT22;33219;47.410;9.730;2022-11-15T15:21:48;10.00;99.90
47482;DHT22;33219;47.410;9.730;2022-11-15T15:24:16;10.00;99.90
47482;DHT22;33219;47.410;9.730;2022-11-15T15:26:44;10.00;99.90
47482;DHT22;33219;47.410;9.730;2022-11-15T15:29:14;10.00;99.90
47482;DHT22;33219;47.410;9.730;2022-11-15T15:31:42;10.00;99.90
47482;DHT22;33219;47.410;9.730;2022-11-15T15:34:10;10.00;99.90
47482;DHT22;33219;47.410;9.730;2022-11-15T15:36:42;9.90;99.90
47482;DHT22;33219;47.410;9.730;2022-11-15T15:39:09;9.90;99.90
47482;DHT22;33219;47.410;9.730;2022-11-15T15:41:38;9.90;99.90
47482;DHT22;33219;47.410;9.730;2022-11-15T15:44:06;9.90;99.90
47482;DHT22;33219;47.410;9.730;2022-11-15T15:46:38;9.90;99.90
47482;DHT22;33219;47.410;9.730;2022-11-15T15:49:09;9.80;99.90
47482;DHT22;33219;47.410;9.730;2022-11-15T15:51:37;9.80;99.90
47482;DHT22;33219;47.410;9.730;2022-11-15T15:54:05;9.70;99.90
47482;DHT22;33219;47.410;9.730;2022-11-15T15:56:33;9.70;99.90
47482;DHT22;33219;47.410;9.730;2022-11-15T15:59:00;9.70;99.90
47482;DHT22;33219;47.410;9.730;2022-11-15T16:01:28;9.70;99.90
47482;DHT22;33219;47.410;9.730;2022-11-15T16:03:55;9.70;99.90
47482;DHT22;33219;47.410;9.730;2022-11-15T16:06:35;9.60;99.90
47482;DHT22;33219;47.410;9.730;2022-11-15T16:08:54;9.60;99.90
47482;DHT22;33219;47.410;9.730;2022-11-15T16:11:21;9.50;99.90
47482;DHT22;33219;47.410;9.730;2022-11-15T16:13:49;9.50;99.90
47482;DHT22;33219;47.410;9.730;2022-11-15T16:16:18;9.30;99.90
47482;DHT22;33219;47.410;9.730;2022-11-15T16:18:47;9.30;99.90
47482;DHT22;33219;47.410;9.730;2022-11-15T16:21:15;9.20;99.90
47482;DHT22;33219;47.410;9.730;2022-11-15T16:23:42;9.10;99.90
47482;DHT22;33219;47.410;9.730;2022-11-15T16:26:27;9.10;99.90
47482;DHT22;33219;47.410;9.730;2022-11-15T16:28:55;9.00;99.90
47482;DHT22;33219;47.410;9.730;2022-11-15T16:31:22;8.90;99.90
47482;DHT22;33219;47.410;9.730;2022-11-15T16:33:50;8.90;99.90
47482;DHT22;33219;47.410;9.730;2022-11-15T16:36:23;8.90;99.90
47482;DHT22;33219;47.410;9.730;2022-11-15T16:38:51;9.00;99.90
47482;DHT22;33219;47.410;9.730;2022-11-15T16:41:19;9.00;99.90
47482;DHT22;33219;47.410;9.730;2022-11-15T16:43:47;9.00;99.90
47482;DHT22;33219;47.410;9.730;2022-11-15T16:46:21;9.10;99.90
47482;DHT22;33219;47.410;9.730;2022-11-15T16:48:49;9.10;99.90
47482;DHT22;33219;47.410;9.730;2022-11-15T16:51:16;9.10;99.90
47482;DHT22;33219;47.410;9.730;2022-11-15T16:53:44;9.20;99.90
47482;DHT22;33219;47.410;9.730;2022-11-15T16:56:17;9.10;99.90
47482;DHT22;33219;47.410;9.730;2022-11-15T16:58:45;9.10;99.90
47482;DHT22;33219;47.410;9.730;2022-11-15T17:01:19;9.10;99.90
47482;DHT22;33219;47.410;9.730;2022-11-15T17:03:47;9.10;99.90
47482;DHT22;33219;47.410;9.730;2022-11-15T17:06:14;9.10;99.90
47482;DHT22;33219;47.410;9.730;2022-11-15T17:08:44;9.10;99.90
47482;DHT22;33219;47.410;9.730;2022-11-15T17:11:20;9.00;99.90
47482;DHT22;33219;47.410;9.730;2022-11-15T17:13:48;9.00;99.90
47482;DHT22;33219;47.410;9.730;2022-11-15T17:16:17;9.00;99.90
47482;DHT22;33219;47.410;9.730;2022-11-15T17:18:49;9.00;99.90
47482;DHT22;33219;47.410;9.730;2022-11-15T17:21:20;9.00;99.90
47482;DHT22;33219;47.410;9.730;2022-11-15T17:23:48;9.00;99.90
47482;DHT22;33219;47.410;9.730;2022-11-15T17:26:16;9.00;99.90
47482;DHT22;33219;47.410;9.730;2022-11-15T17:28:43;9.00;99.90
47482;DHT22;33219;47.410;9.730;2022-11-15T17:31:13;9.00;99.90
47482;DHT22;33219;47.410;9.730;2022-11-15T17:33:41;9.00;99.90
47482;DHT22;33219;47.410;9.730;2022-11-15T17:36:10;9.00;99.90
47482;DHT22;33219;47.410;9.730;2022-11-15T17:38:40;9.00;99.90
47482;DHT22;33219;47.410;9.730;2022-11-15T17:41:15;9.00;99.90
47482;DHT22;33219;47.410;9.730;2022-11-15T17:43:42;9.00;99.90
47482;DHT22;33219;47.410;9.730;2022-11-15T17:46:14;9.00;99.90
47482;DHT22;33219;47.410;9.730;2022-11-15T17:48:43;9.10;99.90
47482;DHT22;33219;47.410;9.730;2022-11-15T17:51:13;9.10;99.90
47482;DHT22;33219;47.410;9.730;2022-11-15T17:53:43;9.10;99.90
47482;DHT22;33219;47.410;9.730;2022-11-15T17:56:13;9.00;99.90
47482;DHT22;33219;47.410;9.730;2022-11-15T17:58:45;9.00;99.90
47482;DHT22;33219;47.410;9.730;2022-11-15T18:01:22;9.00;99.90
47482;DHT22;33219;47.410;9.730;2022-11-15T18:03:51;9.00;99.90
47482;DHT22;33219;47.410;9.730;2022-11-15T18:06:20;9.00;99.90
47482;DHT22;33219;47.410;9.730;2022-11-15T18:08:49;9.00;99.90
47482;DHT22;33219;47.410;9.730;2022-11-15T18:11:19;9.00;99.90
47482;DHT22;33219;47.410;9.730;2022-11-15T18:13:51;9.10;99.90
47482;DHT22;33219;47.410;9.730;2022-11-15T18:16:20;9.10;99.90
47482;DHT22;33219;47.410;9.730;2022-11-15T18:18:52;9.10;99.90
47482;DHT22;33219;47.410;9.730;2022-11-15T18:21:21;9.10;99.90
47482;DHT22;33219;47.410;9.730;2022-11-15T18:23:55;9.10;99.90
47482;DHT22;33219;47.410;9.730;2022-11-15T18:26:24;9.10;99.90
47482;DHT22;33219;47.410;9.730;2022-11-15T18:29:02;9.10;99.90
47482;DHT22;33219;47.410;9.730;2022-11-15T18:31:29;9.10;99.90
47482;DHT22;33219;47.410;9.730;2022-11-15T18:33:58;9.20;99.90
47482;DHT22;33219;47.410;9.730;2022-11-15T18:36:28;9.20;99.90
47482;DHT22;33219;47.410;9.730;2022-11-15T18:38:58;9.20;99.90
47482;DHT22;33219;47.410;9.730;2022-11-15T18:41:28;9.20;99.90
47482;DHT22;33219;47.410;9.730;2022-11-15T18:43:57;9.30;99.90
47482;DHT22;33219;47.410;9.730;2022-11-15T18:46:28;9.30;99.90
47482;DHT22;33219;47.410;9.730;2022-11-15T18:48:58;9.30;99.90
47482;DHT22;33219;47.410;9.730;2022-11-15T18:51:29;9.30;99.90
47482;DHT22;33219;47.410;9.730;2022-11-15T18:53:59;9.30;99.90
47482;DHT22;33219;47.410;9.730;2022-11-15T18:56:28;9.30;99.90
47482;DHT22;33219;47.410;9.730;2022-11-15T18:58:59;9.30;99.90
47482;DHT22;33219;47.410;9.730;2022-11-15T19:01:33;9.20;99.90
47482;DHT22;33219;47.410;9.730;2022-11-15T19:04:13;9.20;99.90
47482;DHT22;33219;47.410;9.730;2022-11-15T19:06:44;9.20;99.90
47482;DHT22;33219;47.410;9.730;2022-11-15T19:09:13;9.20;99.90
47482;DHT22;33219;47.410;9.730;2022-11-15T19:11:43;9.20;99.90
47482;DHT22;33219;47.410;9.730;2022-11-15T19:14:13;9.20;99.90
47482;DHT22;33219;47.410;9.730;2022-11-15T19:16:46;9.20;99.90
47482;DHT22;33219;47.410;9.730;2022-11-15T19:19:23;9.20;99.90
47482;DHT22;33219;47.410;9.730;2022-11-15T19:21:51;9.20;99.90
47482;DHT22;33219;47.410;9.730;2022-11-15T19:24:19;9.20;99.90
47482;DHT22;33219;47.410;9.730;2022-11-15T19:26:47;9.10;99.90
47482;DHT22;33219;47.410;9.730;2022-11-15T19:29:15;9.10;99.90
47482;DHT22;33219;47.410;9.730;2022-11-15T19:31:44;9.10;99.90
47482;DHT22;33219;47.410;9.730;2022-11-15T19:34:13;9.10;99.90
47482;DHT22;33219;47.410;9.730;2022-11-15T19:36:42;9.00;99.90
47482;DHT22;33219;47.410;9.730;2022-11-15T19:39:13;9.00;99.90
47482;DHT22;33219;47.410;9.730;2022-11-15T19:41:42;9.00;99.90
47482;DHT22;33219;47.410;9.730;2022-11-15T19:44:11;8.90;99.90
47482;DHT22;33219;47.410;9.730;2022-11-15T19:46:40;8.90;99.90
47482;DHT22;33219;47.410;9.730;2022-11-15T19:49:08;8.90;99.90
47482;DHT22;33219;47.410;9.730;2022-11-15T19:51:36;8.90;99.90
47482;DHT22;33219;47.410;9.730;2022-11-15T19:54:04;8.90;99.90
47482;DHT22;33219;47.410;9.730;2022-11-15T19:56:34;8.80;99.90
47482;DHT22;33219;47.410;9.730;2022-11-15T19:59:03;8.90;99.90
47482;DHT22;33219;47.410;9.730;2022-11-15T20:01:34;8.90;99.90
47482;DHT22;33219;47.410;9.730;2022-11-15T20:04:06;8.90;99.90
47482;DHT22;33219;47.410;9.730;2022-11-15T20:06:40;8.90;99.90
47482;DHT22;33219;47.410;9.730;2022-11-15T20:09:12;8.80;99.90
47482;DHT22;33219;47.410;9.730;2022-11-15T20:11:40;8.80;99.90
47482;DHT22;33219;47.410;9.730;2022-11-15T20:14:10;8.80;99.90
47482;DHT22;33219;47.410;9.730;2022-11-15T20:16:38;8.80;99.90
47482;DHT22;33219;47.410;9.730;2022-11-15T20:19:08;8.80;99.90
47482;DHT22;33219;47.410;9.730;2022-11-15T20:21:37;8.80;99.90
47482;DHT22;33219;47.410;9.730;2022-11-15T20:24:05;8.70;99.90
47482;DHT22;33219;47.410;9.730;2022-11-15T20:26:33;8.70;99.90
47482;DHT22;33219;47.410;9.730;2022-11-15T20:29:01;8.70;99.90
47482;DHT22;33219;47.410;9.730;2022-11-15T20:31:30;8.70;99.90
47482;DHT22;33219;47.410;9.730;2022-11-15T20:33:58;8.70;99.90
47482;DHT22;33219;47.410;9.730;2022-11-15T20:36:26;8.70;99.90
47482;DHT22;33219;47.410;9.730;2022-11-15T20:39:01;8.60;99.90
47482;DHT22;33219;47.410;9.730;2022-11-15T20:41:30;8.50;99.90
47482;DHT22;33219;47.410;9.730;2022-11-15T20:43:58;8.50;99.90
47482;DHT22;33219;47.410;9.730;2022-11-15T20:46:27;8.40;99.90
47482;DHT22;33219;47.410;9.730;2022-11-15T20:48:55;8.40;99.90
47482;DHT22;33219;47.410;9.730;2022-11-15T20:51:23;8.40;99.90